Time;durP1;ratioP1;P1;durP2;ratioP2;P2;SDS_P1;SDS_P2;PMS_P1;PMS_P2;Temp;Humidity;BMP_temperature;BMP_pressure;BME280_temperature;BME280_humidity;BME280_pressure;Samples;Min_cycle;Max_cycle;Signal;HPM_P1;HPM_P2
2022/12/14 00:01:25;;;;;;;;;;;;;;;;;;5093960;28;1505;-39
2022/12/14 00:03:52;;;;;;;;;;;;;;;;;;5093605;28;1683;-39
2022/12/14 00:06:21;;;;;;;;;;;;;;;;;;5093586;28;2108;-38
2022/12/14 00:08:48;;;;;;;;;;;;;;;;;;5093605;28;1565;-39
2022/12/14 00:11:16;;;;;;;;;;;;;;;;;;5093988;28;1443;-38
2022/12/14 00:13:43;;;;;;;;;;;;;;;;;;5093780;28;1777;-38
2022/12/14 00:16:14;;;;;;;;;;;;;;;;;;5093378;28;1967;-39
2022/12/14 00:18:41;;;;;;;;;;;;;;;;;;5093157;28;1285;-39
2022/12/14 00:21:09;;;;;;;;;;;;;;;;;;5106834;28;2178;-38
2022/12/14 00:23:37;;;;;;;;;;;;;;;;;;5113821;28;2194;-39
2022/12/14 00:26:09;;;;;;;;;;;;;;;;;;5113597;28;1395;-39
2022/12/14 00:28:36;;;;;;;;;;;;;;;;;;5113408;28;1967;-39
2022/12/14 00:31:03;;;;;;;;;;;;;;;;;;5113563;28;1497;-39
2022/12/14 00:33:31;;;;;;;;;;;;;;;;;;5113548;28;2206;-38
2022/12/14 00:35:59;;;;;;;;;;;;;;;;;;5113342;28;1347;-39
2022/12/14 00:38:26;;;;;;;;;;;;;;;;;;5113315;28;1966;-39
2022/12/14 00:40:54;;;;;;;;;;;;;;;;;;5113405;28;1985;-39
2022/12/14 00:43:21;;;;;;;;;;;;;;;;;;5113259;28;1931;-38
2022/12/14 00:45:48;;;;;;;;;;;;;;;;;;5113499;28;1479;-39
2022/12/14 00:48:17;;;;;;;;;;;;;;;;;;5113302;28;2265;-39
2022/12/14 00:50:45;;;;;;;;;;;;;;;;;;5113337;28;1929;-39
2022/12/14 00:53:14;;;;;;;;;;;;;;;;;;5094989;28;1719;-39
2022/12/14 00:55:43;;;;;;;;;;;;;;;;;;5113068;28;1882;-38
2022/12/14 00:58:16;;;;;;;;;;;;;;;;;;5113146;28;1913;-39
2022/12/14 01:00:43;;;;;;;;;;;;;;;;;;5113141;28;1654;-39
2022/12/14 01:03:11;;;;;;;;;;;;;;;;;;5112913;28;1456;-39
2022/12/14 01:05:40;;;;;;;;;;;;;;;;;;5112574;28;2034;-37
2022/12/14 01:08:07;;;;;;;;;;;;;;;;;;5112955;28;1911;-39
2022/12/14 01:10:37;;;;;;;;;;;;;;;;;;5113166;28;866;-39
2022/12/14 01:13:04;;;;;;;;;;;;;;;;;;5112917;28;2031;-38
2022/12/14 01:15:32;;;;;;;;;;;;;;;;;;5112774;28;2293;-38
2022/12/14 01:18:00;;;;;;;;;;;;;;;;;;5112633;28;1976;-39
2022/12/14 01:20:27;;;;;;;;;;;;;;;;;;5104092;28;1771;-38
2022/12/14 01:22:57;;;;;;;;;;;;;;;;;;5092269;28;1989;-39
2022/12/14 01:25:24;;;;;;;;;;;;;;;;;;5092047;28;1826;-41
2022/12/14 01:27:51;;;;;;;;;;;;;;;;;;5092010;28;1831;-40
2022/12/14 01:30:20;;;;;;;;;;;;;;;;;;5091978;28;1685;-38
2022/12/14 01:32:47;;;;;;;;;;;;;;;;;;5091910;28;1832;-39
2022/12/14 01:35:14;;;;;;;;;;;;;;;;;;5092421;28;1894;-39
2022/12/14 01:37:41;;;;;;;;;;;;;;;;;;5090734;28;2153;-38
2022/12/14 01:40:08;;;;;;;;;;;;;;;;;;5091912;28;1701;-38
2022/12/14 01:42:35;;;;;;;;;;;;;;;;;;5091514;28;1770;-40
2022/12/14 01:45:04;;;;;;;;;;;;;;;;;;5091747;28;2016;-38
2022/12/14 01:47:30;;;;;;;;;;;;;;;;;;5091796;28;2061;-40
2022/12/14 01:50:00;;;;;;;;;;;;;;;;;;5091543;28;2058;-39
2022/12/14 01:52:27;;;;;;;;;;;;;;;;;;5091749;28;2062;-38
2022/12/14 01:55:17;;;;;;;;;;;;;;;;;;5091374;28;1632;-39
2022/12/14 01:57:45;;;;;;;;;;;;;;;;;;5080668;28;1916;-39
2022/12/14 02:00:12;;;;;;;;;;;;;;;;;;5091392;28;1354;-38
2022/12/14 02:03:18;;;;;;;;;;;;;;;;;;5091467;28;1969;-39
2022/12/14 02:06:05;;;;;;;;;;;;;;;;;;5008936;28;1471;-38
2022/12/14 02:08:32;;;;;;;;;;;;;;;;;;5009413;28;1765;-39
2022/12/14 02:11:01;;;;;;;;;;;;;;;;;;5076441;28;1952;-38
2022/12/14 02:13:30;;;;;;;;;;;;;;;;;;5091651;28;1937;-39
2022/12/14 02:15:57;;;;;;;;;;;;;;;;;;5091197;28;1327;-38
2022/12/14 02:18:26;;;;;;;;;;;;;;;;;;5091359;28;2256;-39
2022/12/14 02:21:18;;;;;;;;;;;;;;;;;;5091360;28;2444;-39
2022/12/14 02:24:04;;;;;;;;;;;;;;;;;;5091597;28;1642;-40
2022/12/14 02:26:43;;;;;;;;;;;;;;;;;;5091162;28;1670;-39
2022/12/14 02:29:18;;;;;;;;;;;;;;;;;;5111591;28;2199;-39
2022/12/14 02:31:45;;;;;;;;;;;;;;;;;;5111907;28;1870;-39
2022/12/14 02:34:16;;;;;;;;;;;;;;;;;;5111464;28;1788;-39
2022/12/14 02:36:52;;;;;;;;;;;;;;;;;;5111466;28;2021;-40
2022/12/14 02:39:37;;;;;;;;;;;;;;;;;;5093350;28;1701;-39
2022/12/14 02:42:18;;;;;;;;;;;;;;;;;;5111549;28;1701;-40
2022/12/14 02:44:46;;;;;;;;;;;;;;;;;;5115917;28;2155;-38
2022/12/14 02:47:36;;;;;;;;;;;;;;;;;;5115605;28;1818;-39
2022/12/14 02:50:06;;;;;;;;;;;;;;;;;;5115465;28;1664;-38
2022/12/14 02:52:40;;;;;;;;;;;;;;;;;;5115594;28;1743;-39
2022/12/14 02:55:15;;;;;;;;;;;;;;;;;;5115619;28;1931;-38
2022/12/14 02:57:48;;;;;;;;;;;;;;;;;;5115353;28;1973;-38
2022/12/14 03:00:17;;;;;;;;;;;;;;;;;;5115621;28;1972;-39
2022/12/14 03:02:45;;;;;;;;;;;;;;;;;;5115615;28;1979;-39
2022/12/14 03:05:12;;;;;;;;;;;;;;;;;;5115450;28;1406;-39
2022/12/14 03:07:53;;;;;;;;;;;;;;;;;;5115172;28;1795;-39
2022/12/14 03:10:24;;;;;;;;;;;;;;;;;;5115360;28;1796;-39
2022/12/14 03:13:00;;;;;;;;;;;;;;;;;;5115076;28;1332;-40
2022/12/14 03:15:28;;;;;;;;;;;;;;;;;;5115248;28;1337;-39
2022/12/14 03:17:57;;;;;;;;;;;;;;;;;;5114446;28;2247;-39
2022/12/14 03:20:27;;;;;;;;;;;;;;;;;;5107224;28;1916;-39
2022/12/14 03:23:06;;;;;;;;;;;;;;;;;;5094578;28;1845;-39
2022/12/14 03:25:42;;;;;;;;;;;;;;;;;;5094495;28;1312;-38
2022/12/14 03:28:47;;;;;;;;;;;;;;;;;;5094038;28;1796;-37
2022/12/14 03:31:20;;;;;;;;;;;;;;;;;;5012261;28;1663;-40
2022/12/14 03:33:47;;;;;;;;;;;;;;;;;;5012473;28;2004;-40
2022/12/14 03:36:33;;;;;;;;;;;;;;;;;;5055231;28;1556;-39
2022/12/14 03:39:02;;;;;;;;;;;;;;;;;;5094074;28;1907;-39
2022/12/14 03:41:48;;;;;;;;;;;;;;;;;;5094019;28;1955;-38
2022/12/14 03:44:19;;;;;;;;;;;;;;;;;;5094382;28;1596;-40
2022/12/14 03:46:48;;;;;;;;;;;;;;;;;;5094213;28;1844;-39
2022/12/14 03:49:20;;;;;;;;;;;;;;;;;;5094362;28;1502;-38
2022/12/14 03:52:01;;;;;;;;;;;;;;;;;;5093696;28;1629;-39
2022/12/14 03:54:44;;;;;;;;;;;;;;;;;;5092645;28;1388;-39
2022/12/14 03:57:30;;;;;;;;;;;;;;;;;;5093944;28;2204;-39
2022/12/14 04:00:08;;;;;;;;;;;;;;;;;;5093858;28;1386;-40
2022/12/14 04:02:47;;;;;;;;;;;;;;;;;;5093928;28;1920;-39
2022/12/14 04:05:22;;;;;;;;;;;;;;;;;;5093534;28;2082;-40
2022/12/14 04:07:54;;;;;;;;;;;;;;;;;;5093832;28;1467;-43
2022/12/14 04:18:55;;;;;;;;;;;;;;;;;;5093513;28;2026;-39
2022/12/14 04:21:33;;;;;;;;;;;;;;;;;;5109735;28;1981;-40
2022/12/14 04:27:00;;;;;;;;;;;;;;;;;;5112499;28;2054;-39
2022/12/14 04:32:17;;;;;;;;;;;;;;;;;;5113654;28;2208;-40
2022/12/14 04:34:45;;;;;;;;;;;;;;;;;;5113752;28;2225;-39
2022/12/14 04:37:15;;;;;;;;;;;;;;;;;;5113073;28;2151;-39
2022/12/14 04:39:46;;;;;;;;;;;;;;;;;;5113168;28;1678;-40
2022/12/14 04:42:14;;;;;;;;;;;;;;;;;;5113425;28;2048;-41
2022/12/14 04:44:43;;;;;;;;;;;;;;;;;;5113465;28;2178;-41
2022/12/14 04:47:12;;;;;;;;;;;;;;;;;;5113405;28;1414;-41
2022/12/14 04:49:39;;;;;;;;;;;;;;;;;;5113377;28;2245;-39
2022/12/14 04:52:10;;;;;;;;;;;;;;;;;;5113162;28;2044;-40
2022/12/14 04:54:57;;;;;;;;;;;;;;;;;;5113131;28;1826;-40
2022/12/14 04:57:34;;;;;;;;;;;;;;;;;;5112998;28;2008;-40
2022/12/14 05:00:02;;;;;;;;;;;;;;;;;;5112849;28;1628;-39
2022/12/14 05:02:30;;;;;;;;;;;;;;;;;;5112892;28;1586;-39
2022/12/14 05:04:58;;;;;;;;;;;;;;;;;;5112418;28;1454;-39
2022/12/14 05:07:41;;;;;;;;;;;;;;;;;;5112626;28;1797;-38
2022/12/14 05:10:22;;;;;;;;;;;;;;;;;;5112892;28;1834;-39
2022/12/14 05:12:56;;;;;;;;;;;;;;;;;;5113043;28;1694;-40
2022/12/14 05:15:32;;;;;;;;;;;;;;;;;;5112898;28;2059;-39
2022/12/14 05:18:03;;;;;;;;;;;;;;;;;;5112322;28;2102;-39
2022/12/14 05:20:30;;;;;;;;;;;;;;;;;;5108716;28;1361;-38
2022/12/14 05:22:57;;;;;;;;;;;;;;;;;;5112278;28;2140;-38
2022/12/14 05:25:24;;;;;;;;;;;;;;;;;;5112673;28;1664;-39
2022/12/14 05:27:51;;;;;;;;;;;;;;;;;;5112577;28;1616;-39
2022/12/14 05:30:18;;;;;;;;;;;;;;;;;;5112526;28;1661;-38
2022/12/14 05:32:45;;;;;;;;;;;;;;;;;;5112507;28;1672;-39
2022/12/14 05:35:13;;;;;;;;;;;;;;;;;;5112245;28;1813;-39
2022/12/14 05:37:40;;;;;;;;;;;;;;;;;;5112278;28;1909;-39
2022/12/14 05:40:08;;;;;;;;;;;;;;;;;;5111634;28;1477;-41
2022/12/14 05:42:35;;;;;;;;;;;;;;;;;;5112163;28;2099;-39
2022/12/14 05:45:09;;;;;;;;;;;;;;;;;;5112068;28;1836;-40
2022/12/14 05:47:36;;;;;;;;;;;;;;;;;;5111965;28;1949;-40
2022/12/14 05:50:04;;;;;;;;;;;;;;;;;;5111876;28;1736;-39
2022/12/14 05:52:31;;;;;;;;;;;;;;;;;;5111932;28;1270;-40
2022/12/14 05:54:58;;;;;;;;;;;;;;;;;;5111765;28;1846;-39
2022/12/14 05:57:29;;;;;;;;;;;;;;;;;;5112002;28;1761;-40
2022/12/14 05:59:56;;;;;;;;;;;;;;;;;;5111955;28;1792;-39
2022/12/14 06:02:23;;;;;;;;;;;;;;;;;;5112097;28;1491;-39
2022/12/14 06:04:51;;;;;;;;;;;;;;;;;;5111662;28;1726;-40
2022/12/14 06:07:19;;;;;;;;;;;;;;;;;;5111752;28;1724;-39
2022/12/14 06:09:51;;;;;;;;;;;;;;;;;;5111777;28;1382;-40
2022/12/14 06:12:18;;;;;;;;;;;;;;;;;;5111540;28;1776;-39
2022/12/14 06:14:45;;;;;;;;;;;;;;;;;;5111562;28;1608;-47
2022/12/14 06:17:12;;;;;;;;;;;;;;;;;;5111061;28;2080;-41
2022/12/14 06:19:39;;;;;;;;;;;;;;;;;;5109609;28;2324;-40
2022/12/14 06:22:06;;;;;;;;;;;;;;;;;;5091377;28;2166;-40
2022/12/14 06:24:34;;;;;;;;;;;;;;;;;;5083355;28;9815;-40
2022/12/14 06:27:01;;;;;;;;;;;;;;;;;;5091777;28;1683;-39
2022/12/14 06:29:28;;;;;;;;;;;;;;;;;;5111663;28;1780;-39
2022/12/14 06:31:55;;;;;;;;;;;;;;;;;;5111671;28;1510;-39
2022/12/14 06:34:22;;;;;;;;;;;;;;;;;;5111359;28;1889;-39
2022/12/14 06:36:54;;;;;;;;;;;;;;;;;;5093515;28;2333;-40
2022/12/14 06:39:21;;;;;;;;;;;;;;;;;;5111154;28;1910;-40
2022/12/14 06:41:49;;;;;;;;;;;;;;;;;;5109951;28;1693;-40
2022/12/14 06:44:16;;;;;;;;;;;;;;;;;;5108763;28;1961;-40
2022/12/14 06:46:43;;;;;;;;;;;;;;;;;;5109317;28;1975;-38
2022/12/14 06:49:12;;;;;;;;;;;;;;;;;;5109463;28;1594;-41
2022/12/14 06:51:39;;;;;;;;;;;;;;;;;;5109453;28;1699;-41
2022/12/14 06:54:08;;;;;;;;;;;;;;;;;;5109134;28;1695;-39
2022/12/14 06:56:35;;;;;;;;;;;;;;;;;;5092220;28;1804;-39
2022/12/14 06:59:04;;;;;;;;;;;;;;;;;;5111027;28;1907;-40
2022/12/14 07:01:31;;;;;;;;;;;;;;;;;;5111118;28;1794;-39
2022/12/14 07:03:58;;;;;;;;;;;;;;;;;;5110919;28;1681;-39
2022/12/14 07:06:27;;;;;;;;;;;;;;;;;;5111259;28;1922;-40
2022/12/14 07:08:55;;;;;;;;;;;;;;;;;;5111024;28;1614;-39
2022/12/14 07:11:23;;;;;;;;;;;;;;;;;;5111214;28;2146;-40
2022/12/14 07:13:50;;;;;;;;;;;;;;;;;;5110827;28;1731;-40
2022/12/14 07:16:19;;;;;;;;;;;;;;;;;;5111009;28;1685;-39
2022/12/14 07:18:46;;;;;;;;;;;;;;;;;;5111155;28;2139;-40
2022/12/14 07:21:17;;;;;;;;;;;;;;;;;;5111123;28;1877;-40
2022/12/14 07:23:45;;;;;;;;;;;;;;;;;;5111062;28;1843;-40
2022/12/14 07:26:30;;;;;;;;;;;;;;;;;;5111080;28;1667;-39
2022/12/14 07:28:59;;;;;;;;;;;;;;;;;;5112620;28;1566;-40
2022/12/14 07:31:27;;;;;;;;;;;;;;;;;;5115050;28;1538;-40
2022/12/14 07:33:56;;;;;;;;;;;;;;;;;;5114678;28;2004;-40
2022/12/14 07:36:24;;;;;;;;;;;;;;;;;;5114872;28;1373;-40
2022/12/14 07:38:52;;;;;;;;;;;;;;;;;;5114233;28;1908;-40
2022/12/14 07:41:21;;;;;;;;;;;;;;;;;;5114557;28;1674;-40
2022/12/14 07:43:49;;;;;;;;;;;;;;;;;;5114317;28;1523;-39
2022/12/14 07:46:18;;;;;;;;;;;;;;;;;;5114571;28;1797;-40
2022/12/14 07:48:46;;;;;;;;;;;;;;;;;;5114633;28;1791;-40
2022/12/14 07:51:15;;;;;;;;;;;;;;;;;;5114600;28;1807;-39
2022/12/14 07:53:42;;;;;;;;;;;;;;;;;;5114672;28;1438;-40
2022/12/14 07:56:17;;;;;;;;;;;;;;;;;;5114370;28;1634;-39
2022/12/14 07:58:50;;;;;;;;;;;;;;;;;;5113572;28;2006;-40
2022/12/14 08:01:19;;;;;;;;;;;;;;;;;;5095832;28;1822;-39
2022/12/14 08:03:47;;;;;;;;;;;;;;;;;;5114404;28;1820;-39
2022/12/14 08:06:16;;;;;;;;;;;;;;;;;;5114153;28;1591;-40
2022/12/14 08:08:43;;;;;;;;;;;;;;;;;;5114076;28;1660;-40
2022/12/14 08:11:10;;;;;;;;;;;;;;;;;;5114038;28;2059;-39
2022/12/14 08:13:39;;;;;;;;;;;;;;;;;;5113849;28;1639;-40
2022/12/14 08:16:13;;;;;;;;;;;;;;;;;;5113621;28;1815;-40
2022/12/14 08:18:47;;;;;;;;;;;;;;;;;;5095264;28;1912;-40
2022/12/14 08:21:16;;;;;;;;;;;;;;;;;;5113772;28;1425;-40
2022/12/14 08:23:43;;;;;;;;;;;;;;;;;;5113792;28;1855;-40
2022/12/14 08:26:16;;;;;;;;;;;;;;;;;;5113502;28;1936;-40
2022/12/14 08:28:44;;;;;;;;;;;;;;;;;;5113786;28;2236;-40
2022/12/14 08:31:12;;;;;;;;;;;;;;;;;;5095442;28;1994;-40
2022/12/14 08:33:39;;;;;;;;;;;;;;;;;;5113778;28;1875;-40
2022/12/14 08:36:14;;;;;;;;;;;;;;;;;;5113688;28;1616;-39
2022/12/14 08:38:41;;;;;;;;;;;;;;;;;;5113245;28;1914;-40
2022/12/14 08:41:12;;;;;;;;;;;;;;;;;;5113169;28;2088;-41
2022/12/14 08:43:39;;;;;;;;;;;;;;;;;;5113422;28;1910;-40
2022/12/14 08:46:07;;;;;;;;;;;;;;;;;;5113502;28;1618;-40
2022/12/14 08:48:35;;;;;;;;;;;;;;;;;;5113709;28;1262;-41
2022/12/14 08:51:06;;;;;;;;;;;;;;;;;;5113178;28;1678;-40
2022/12/14 08:53:33;;;;;;;;;;;;;;;;;;5113165;28;1812;-39
2022/12/14 08:56:04;;;;;;;;;;;;;;;;;;5112980;28;1976;-40
2022/12/14 08:58:31;;;;;;;;;;;;;;;;;;5113062;28;1910;-40
2022/12/14 09:01:02;;;;;;;;;;;;;;;;;;5113136;28;1383;-39
2022/12/14 09:03:29;;;;;;;;;;;;;;;;;;5112891;28;1620;-40
2022/12/14 09:06:00;;;;;;;;;;;;;;;;;;5112581;28;1922;-39
2022/12/14 09:08:27;;;;;;;;;;;;;;;;;;5112601;28;2115;-39
2022/12/14 09:10:54;;;;;;;;;;;;;;;;;;5112931;28;1957;-39
2022/12/14 09:13:21;;;;;;;;;;;;;;;;;;5107026;28;1579;-39
2022/12/14 09:16:01;;;;;;;;;;;;;;;;;;5092427;28;1757;-39
2022/12/14 09:18:28;;;;;;;;;;;;;;;;;;5092347;28;1959;-39
2022/12/14 09:20:56;;;;;;;;;;;;;;;;;;5104236;28;2275;-39
2022/12/14 09:23:24;;;;;;;;;;;;;;;;;;5096838;28;2027;-40
2022/12/14 09:25:59;;;;;;;;;;;;;;;;;;5092132;28;1576;-38
2022/12/14 09:28:26;;;;;;;;;;;;;;;;;;5091761;28;2003;-40
2022/12/14 09:30:57;;;;;;;;;;;;;;;;;;5092152;28;1799;-40
2022/12/14 09:33:25;;;;;;;;;;;;;;;;;;5092059;28;1805;-39
2022/12/14 09:35:52;;;;;;;;;;;;;;;;;;5092087;28;1583;-40
2022/12/14 09:38:20;;;;;;;;;;;;;;;;;;5073753;28;1863;-39
2022/12/14 09:40:55;;;;;;;;;;;;;;;;;;5091919;28;1965;-40
2022/12/14 09:43:40;;;;;;;;;;;;;;;;;;5091870;28;1876;-39
2022/12/14 09:46:17;;;;;;;;;;;;;;;;;;5091844;28;1457;-40
2022/12/14 09:48:44;;;;;;;;;;;;;;;;;;5091779;28;1577;-40
2022/12/14 09:51:15;;;;;;;;;;;;;;;;;;5092000;28;1491;-41
2022/12/14 09:53:44;;;;;;;;;;;;;;;;;;5091816;28;2012;-40
2022/12/14 09:56:14;;;;;;;;;;;;;;;;;;5091751;28;2218;-41
2022/12/14 09:58:47;;;;;;;;;;;;;;;;;;5091447;28;1908;-41
2022/12/14 10:01:21;;;;;;;;;;;;;;;;;;5091673;28;1860;-39
2022/12/14 10:03:48;;;;;;;;;;;;;;;;;;5091414;28;1630;-40
2022/12/14 10:06:20;;;;;;;;;;;;;;;;;;5091256;28;2006;-40
2022/12/14 10:09:08;;;;;;;;;;;;;;;;;;5091304;28;1844;-40
2022/12/14 10:11:47;;;;;;;;;;;;;;;;;;5091526;28;1390;-40
2022/12/14 10:14:14;;;;;;;;;;;;;;;;;;5091416;28;1797;-40
2022/12/14 10:16:44;;;;;;;;;;;;;;;;;;5091674;28;2041;-42
2022/12/14 10:19:17;;;;;;;;;;;;;;;;;;5091129;28;2139;-40
2022/12/14 10:21:50;;;;;;;;;;;;;;;;;;5110241;28;1732;-40
2022/12/14 10:24:23;;;;;;;;;;;;;;;;;;5111725;28;2174;-40
2022/12/14 10:26:51;;;;;;;;;;;;;;;;;;5111491;28;1904;-40
2022/12/14 10:29:31;;;;;;;;;;;;;;;;;;5111635;28;2347;-39
2022/12/14 10:32:14;;;;;;;;;;;;;;;;;;5111163;28;1690;-40
2022/12/14 10:34:44;;;;;;;;;;;;;;;;;;5111625;28;1810;-40
2022/12/14 10:37:21;;;;;;;;;;;;;;;;;;5111576;28;1204;-39
2022/12/14 10:40:03;;;;;;;;;;;;;;;;;;5111259;28;1982;-40
2022/12/14 10:42:50;;;;;;;;;;;;;;;;;;5111480;28;2043;-39
2022/12/14 10:45:24;;;;;;;;;;;;;;;;;;5111316;28;1632;-41
2022/12/14 10:48:23;;;;;;;;;;;;;;;;;;5111805;28;1824;-40
2022/12/14 10:51:02;;;;;;;;;;;;;;;;;;5111363;28;1939;-40
2022/12/14 10:53:55;;;;;;;;;;;;;;;;;;5111407;28;1415;-40
2022/12/14 10:56:24;;;;;;;;;;;;;;;;;;5090745;28;2042;-40
2022/12/14 10:59:09;;;;;;;;;;;;;;;;;;5111024;28;1914;-40
2022/12/14 11:01:37;;;;;;;;;;;;;;;;;;5111155;28;1850;-44
2022/12/14 11:04:06;;;;;;;;;;;;;;;;;;5112853;28;1547;-40
2022/12/14 11:06:33;;;;;;;;;;;;;;;;;;5115070;28;2044;-40
2022/12/14 11:08:59;;;;;;;;;;;;;;;;;;5115347;28;1712;-39
2022/12/14 11:11:28;;;;;;;;;;;;;;;;;;5114937;28;1355;-40
2022/12/14 11:14:08;;;;;;;;;;;;;;;;;;5114710;28;1902;-40
2022/12/14 11:16:37;;;;;;;;;;;;;;;;;;5115077;28;1440;-40
2022/12/14 11:19:13;;;;;;;;;;;;;;;;;;5114714;28;1950;-39
2022/12/14 11:21:41;;;;;;;;;;;;;;;;;;5115132;28;1418;-40
2022/12/14 11:24:20;;;;;;;;;;;;;;;;;;5114698;28;2120;-39
2022/12/14 11:26:48;;;;;;;;;;;;;;;;;;5115075;28;1225;-40
2022/12/14 11:29:20;;;;;;;;;;;;;;;;;;5115289;28;1928;-40
2022/12/14 11:31:51;;;;;;;;;;;;;;;;;;5114522;28;1317;-40
2022/12/14 11:34:27;;;;;;;;;;;;;;;;;;5114386;28;1771;-39
2022/12/14 11:36:54;;;;;;;;;;;;;;;;;;5114707;28;1983;-39
2022/12/14 11:39:24;;;;;;;;;;;;;;;;;;5114582;28;2110;-39
2022/12/14 11:42:03;;;;;;;;;;;;;;;;;;5114593;28;2031;-40
2022/12/14 11:44:35;;;;;;;;;;;;;;;;;;5114630;28;1628;-39
2022/12/14 11:47:02;;;;;;;;;;;;;;;;;;5114428;28;1772;-39
2022/12/14 11:49:38;;;;;;;;;;;;;;;;;;5114608;28;1746;-40
2022/12/14 11:52:10;;;;;;;;;;;;;;;;;;5114290;28;1730;-39
2022/12/14 11:54:42;;;;;;;;;;;;;;;;;;5114272;28;1977;-40
2022/12/14 11:57:21;;;;;;;;;;;;;;;;;;5114236;28;1373;-40
2022/12/14 11:59:51;;;;;;;;;;;;;;;;;;5096089;28;1965;-40
2022/12/14 12:02:27;;;;;;;;;;;;;;;;;;5114334;28;2327;-39
2022/12/14 12:05:13;;;;;;;;;;;;;;;;;;5113917;28;1890;-40
2022/12/14 12:07:49;;;;;;;;;;;;;;;;;;5114001;28;1711;-40
2022/12/14 12:10:18;;;;;;;;;;;;;;;;;;5114306;28;1560;-40
2022/12/14 12:12:53;;;;;;;;;;;;;;;;;;5114253;28;2065;-40
2022/12/14 12:15:39;;;;;;;;;;;;;;;;;;5112704;28;1455;-40
2022/12/14 12:18:09;;;;;;;;;;;;;;;;;;5113876;28;1678;-39
2022/12/14 12:20:39;;;;;;;;;;;;;;;;;;5113791;28;1940;-39
2022/12/14 12:23:15;;;;;;;;;;;;;;;;;;5114200;28;2117;-40
2022/12/14 12:25:42;;;;;;;;;;;;;;;;;;5113743;28;1771;-40
2022/12/14 12:28:23;;;;;;;;;;;;;;;;;;5113975;28;1655;-39
2022/12/14 12:30:52;;;;;;;;;;;;;;;;;;5113710;28;1645;-40
2022/12/14 12:33:23;;;;;;;;;;;;;;;;;;5113960;28;2285;-40
2022/12/14 12:35:52;;;;;;;;;;;;;;;;;;5113702;28;1955;-42
2022/12/14 12:38:30;;;;;;;;;;;;;;;;;;5113671;28;1960;-40
2022/12/14 12:41:17;;;;;;;;;;;;;;;;;;5113297;28;1914;-39
2022/12/14 12:43:53;;;;;;;;;;;;;;;;;;5113707;28;1536;-39
2022/12/14 12:46:26;;;;;;;;;;;;;;;;;;5113681;28;2095;-40
2022/12/14 12:48:57;;;;;;;;;;;;;;;;;;5113376;28;2251;-39
2022/12/14 12:51:26;;;;;;;;;;;;;;;;;;5113222;28;2141;-40
2022/12/14 12:54:10;;;;;;;;;;;;;;;;;;5113558;28;1930;-40
2022/12/14 12:56:40;;;;;;;;;;;;;;;;;;5113158;28;1605;-40
2022/12/14 12:59:12;;;;;;;;;;;;;;;;;;5113551;28;1501;-40
2022/12/14 13:01:42;;;;;;;;;;;;;;;;;;5112814;28;1963;-40
2022/12/14 13:04:26;;;;;;;;;;;;;;;;;;5094743;28;1682;-39
2022/12/14 13:06:56;;;;;;;;;;;;;;;;;;5113243;28;1877;-40
2022/12/14 13:09:32;;;;;;;;;;;;;;;;;;5113402;28;1796;-40
2022/12/14 13:11:59;;;;;;;;;;;;;;;;;;5113167;28;2056;-39
2022/12/14 13:14:44;;;;;;;;;;;;;;;;;;5113018;28;1954;-40
2022/12/14 13:17:24;;;;;;;;;;;;;;;;;;5113086;28;1725;-39
2022/12/14 13:19:52;;;;;;;;;;;;;;;;;;5112365;28;1909;-40
2022/12/14 13:22:28;;;;;;;;;;;;;;;;;;5112869;28;1706;-39
2022/12/14 13:24:56;;;;;;;;;;;;;;;;;;5112513;28;1732;-41
2022/12/14 13:27:46;;;;;;;;;;;;;;;;;;5112482;28;1941;-39
2022/12/14 13:30:16;;;;;;;;;;;;;;;;;;5112398;28;1929;-40
2022/12/14 13:32:43;;;;;;;;;;;;;;;;;;5112684;28;1261;-39
2022/12/14 13:35:10;;;;;;;;;;;;;;;;;;5112531;28;1804;-38
2022/12/14 13:37:51;;;;;;;;;;;;;;;;;;5112435;28;1943;-39
2022/12/14 13:40:18;;;;;;;;;;;;;;;;;;5112292;28;1909;-38
2022/12/14 13:42:46;;;;;;;;;;;;;;;;;;5112167;28;1472;-39
2022/12/14 13:45:19;;;;;;;;;;;;;;;;;;5112400;28;1327;-39
2022/12/14 13:47:50;;;;;;;;;;;;;;;;;;5111025;28;1646;-39
2022/12/14 13:50:30;;;;;;;;;;;;;;;;;;5112398;28;1629;-39
2022/12/14 13:53:04;;;;;;;;;;;;;;;;;;5112046;28;1448;-39
2022/12/14 13:55:39;;;;;;;;;;;;;;;;;;5112663;28;1017;-39
2022/12/14 13:58:15;;;;;;;;;;;;;;;;;;5111912;28;1778;-38
2022/12/14 14:00:48;;;;;;;;;;;;;;;;;;5111764;28;1932;-39
2022/12/14 14:03:33;;;;;;;;;;;;;;;;;;5112102;28;1928;-39
2022/12/14 14:06:19;;;;;;;;;;;;;;;;;;5111417;28;2129;-38
2022/12/14 14:08:50;;;;;;;;;;;;;;;;;;5111983;28;2193;-39
2022/12/14 14:11:17;;;;;;;;;;;;;;;;;;5112153;28;1628;-38
2022/12/14 14:14:16;;;;;;;;;;;;;;;;;;5111673;28;1532;-37
2022/12/14 14:16:45;;;;;;;;;;;;;;;;;;5111611;28;1236;-39
2022/12/14 14:19:19;;;;;;;;;;;;;;;;;;5111791;28;1649;-40
2022/12/14 14:22:15;;;;;;;;;;;;;;;;;;5111426;28;1934;-39
2022/12/14 14:24:57;;;;;;;;;;;;;;;;;;5111585;28;1873;-39
2022/12/14 14:27:33;;;;;;;;;;;;;;;;;;5111639;28;1733;-40
2022/12/14 14:30:00;;;;;;;;;;;;;;;;;;5111735;28;1666;-39
2022/12/14 14:32:36;;;;;;;;;;;;;;;;;;5111567;28;1250;-38
2022/12/14 14:35:07;;;;;;;;;;;;;;;;;;5111296;28;1533;-39
2022/12/14 14:37:37;;;;;;;;;;;;;;;;;;5111427;28;1513;-37
2022/12/14 14:40:04;;;;;;;;;;;;;;;;;;5110969;28;1911;-39
2022/12/14 14:42:49;;;;;;;;;;;;;;;;;;5111485;28;1140;-38
2022/12/14 14:45:42;;;;;;;;;;;;;;;;;;5111706;28;1140;-39
2022/12/14 14:48:18;;;;;;;;;;;;;;;;;;5107783;28;1643;-39
2022/12/14 14:50:47;;;;;;;;;;;;;;;;;;5111547;28;1107;-39
2022/12/14 14:53:17;;;;;;;;;;;;;;;;;;5111555;28;1897;-39
2022/12/14 14:55:48;;;;;;;;;;;;;;;;;;5111524;28;1293;-40
2022/12/14 14:58:27;;;;;;;;;;;;;;;;;;5111410;28;2189;-39
2022/12/14 15:01:09;;;;;;;;;;;;;;;;;;5111042;28;1982;-39
2022/12/14 15:03:42;;;;;;;;;;;;;;;;;;5110999;28;1501;-40
2022/12/14 15:06:17;;;;;;;;;;;;;;;;;;5110991;28;1336;-39
2022/12/14 15:08:55;;;;;;;;;;;;;;;;;;5111379;28;1822;-39
2022/12/14 15:11:24;;;;;;;;;;;;;;;;;;5111213;28;1863;-38
2022/12/14 15:13:58;;;;;;;;;;;;;;;;;;5110955;28;1532;-39
2022/12/14 15:16:32;;;;;;;;;;;;;;;;;;5111326;28;1989;-38
2022/12/14 15:19:18;;;;;;;;;;;;;;;;;;5111169;28;1646;-39
2022/12/14 15:21:47;;;;;;;;;;;;;;;;;;5111158;28;1985;-39
2022/12/14 15:24:14;;;;;;;;;;;;;;;;;;5110844;28;1455;-39
2022/12/14 15:26:42;;;;;;;;;;;;;;;;;;5111045;28;1807;-39
2022/12/14 15:29:15;;;;;;;;;;;;;;;;;;5110917;28;1741;-42
2022/12/14 15:31:43;;;;;;;;;;;;;;;;;;5111070;28;1374;-40
2022/12/14 15:34:14;;;;;;;;;;;;;;;;;;5110817;28;1343;-39
2022/12/14 15:36:42;;;;;;;;;;;;;;;;;;5110948;28;1999;-39
2022/12/14 15:39:28;;;;;;;;;;;;;;;;;;5092999;28;1668;-39
2022/12/14 15:42:12;;;;;;;;;;;;;;;;;;5110951;28;1918;-38
2022/12/14 15:44:52;;;;;;;;;;;;;;;;;;5111038;28;1698;-39
2022/12/14 15:47:29;;;;;;;;;;;;;;;;;;5110912;28;1574;-39
2022/12/14 15:50:16;;;;;;;;;;;;;;;;;;5111713;28;2234;-39
2022/12/14 15:52:44;;;;;;;;;;;;;;;;;;5114331;28;1947;-39
2022/12/14 15:55:25;;;;;;;;;;;;;;;;;;5114533;28;1248;-39
2022/12/14 15:57:53;;;;;;;;;;;;;;;;;;5114452;28;1255;-39
2022/12/14 16:00:20;;;;;;;;;;;;;;;;;;5113995;28;2223;-39
2022/12/14 16:02:47;;;;;;;;;;;;;;;;;;5114460;28;1279;-39
2022/12/14 16:05:19;;;;;;;;;;;;;;;;;;5114033;28;2547;-40
2022/12/14 16:07:48;;;;;;;;;;;;;;;;;;5114594;28;1856;-39
2022/12/14 16:10:28;;;;;;;;;;;;;;;;;;5114338;28;1169;-38
2022/12/14 16:12:58;;;;;;;;;;;;;;;;;;5114367;28;1451;-39
2022/12/14 16:15:27;;;;;;;;;;;;;;;;;;5114070;28;1615;-39
2022/12/14 16:17:57;;;;;;;;;;;;;;;;;;5113924;28;1883;-39
2022/12/14 16:20:30;;;;;;;;;;;;;;;;;;5113543;28;1909;-39
2022/12/14 16:23:00;;;;;;;;;;;;;;;;;;5113643;28;2066;-39
2022/12/14 16:25:28;;;;;;;;;;;;;;;;;;5113956;28;1567;-40
2022/12/14 16:27:56;;;;;;;;;;;;;;;;;;5113697;28;1759;-42
2022/12/14 16:30:30;;;;;;;;;;;;;;;;;;5113484;28;1130;-39
2022/12/14 16:33:07;;;;;;;;;;;;;;;;;;5113745;28;1436;-39
2022/12/14 16:35:36;;;;;;;;;;;;;;;;;;5113647;28;2048;-38
2022/12/14 16:38:05;;;;;;;;;;;;;;;;;;5113516;28;1514;-38
2022/12/14 16:40:32;;;;;;;;;;;;;;;;;;5113333;28;1970;-39
2022/12/14 16:42:59;;;;;;;;;;;;;;;;;;5113322;28;1697;-40
2022/12/14 16:45:42;;;;;;;;;;;;;;;;;;5113449;28;1736;-40
2022/12/14 16:48:14;;;;;;;;;;;;;;;;;;5113528;28;1942;-39
2022/12/14 16:50:41;;;;;;;;;;;;;;;;;;5113411;28;1984;-39
2022/12/14 16:53:29;;;;;;;;;;;;;;;;;;5113319;28;1927;-37
2022/12/14 16:56:01;;;;;;;;;;;;;;;;;;5113162;28;1782;-39
2022/12/14 16:58:28;;;;;;;;;;;;;;;;;;5113222;28;1806;-40
2022/12/14 17:00:57;;;;;;;;;;;;;;;;;;5111839;28;1920;-40
2022/12/14 17:03:26;;;;;;;;;;;;;;;;;;5094789;28;1641;-39
2022/12/14 17:05:55;;;;;;;;;;;;;;;;;;5112638;28;1258;-40
2022/12/14 17:08:22;;;;;;;;;;;;;;;;;;5112868;28;1542;-40
2022/12/14 17:10:51;;;;;;;;;;;;;;;;;;5113143;28;1474;-40
2022/12/14 17:13:18;;;;;;;;;;;;;;;;;;5112973;28;1817;-39
2022/12/14 17:16:05;;;;;;;;;;;;;;;;;;5112741;28;1933;-39
2022/12/14 17:18:34;;;;;;;;;;;;;;;;;;5112649;28;1303;-39
2022/12/14 17:21:01;;;;;;;;;;;;;;;;;;5111987;28;1907;-44
2022/12/14 17:23:28;;;;;;;;;;;;;;;;;;5112840;28;1757;-39
2022/12/14 17:25:56;;;;;;;;;;;;;;;;;;5112529;28;1569;-39
2022/12/14 17:28:25;;;;;;;;;;;;;;;;;;5093981;28;1910;-39
2022/12/14 17:30:56;;;;;;;;;;;;;;;;;;5112146;28;1516;-38
2022/12/14 17:33:34;;;;;;;;;;;;;;;;;;5111337;28;1298;-38
2022/12/14 17:36:12;;;;;;;;;;;;;;;;;;5111357;28;1993;-39
2022/12/14 17:38:39;;;;;;;;;;;;;;;;;;5093622;28;2162;-38
2022/12/14 17:41:09;;;;;;;;;;;;;;;;;;5111449;28;1981;-39
2022/12/14 17:43:36;;;;;;;;;;;;;;;;;;5111816;28;1324;-38
2022/12/14 17:46:07;;;;;;;;;;;;;;;;;;5094241;28;2096;-38
2022/12/14 17:48:36;;;;;;;;;;;;;;;;;;5111969;28;1938;-39
2022/12/14 17:51:03;;;;;;;;;;;;;;;;;;5110225;28;1606;-39